Time;durP1;ratioP1;P1;durP2;ratioP2;P2;SDS_P1;SDS_P2;PMS_P1;PMS_P2;Temp;Humidity;BMP_temperature;BMP_pressure;BME280_temperature;BME280_humidity;BME280_pressure;Samples;Min_cycle;Max_cycle;Signal;HPM_P1;HPM_P2
2022/05/07 00:00:16;;;;;;;4.68;3.15;;;;;;;;;;6126774;23;20140;-62
2022/05/07 00:02:42;;;;;;;2.33;2.13;;;;;;;;;;6126679;23;20147;-62
2022/05/07 00:05:08;;;;;;;3.13;2.50;;;;;;;;;;6126727;23;20182;-62
2022/05/07 00:07:34;;;;;;;2.97;2.30;;;;;;;;;;6128372;23;20150;-62
2022/05/07 00:10:00;;;;;;;2.45;2.00;;;;;;;;;;6128580;23;20568;-62
2022/05/07 00:12:26;;;;;;;2.97;2.47;;;;;;;;;;6128438;23;20147;-62
2022/05/07 00:14:52;;;;;;;2.20;2.00;;;;;;;;;;6128650;23;20166;-62
2022/05/07 00:20:02;;;;;;;2.88;2.60;;;;;;;;;;6128762;23;20137;-62
2022/05/07 00:22:28;;;;;;;3.83;2.80;;;;;;;;;;6129013;23;20599;-62
2022/05/07 00:24:54;;;;;;;2.70;2.35;;;;;;;;;;6128696;23;20150;-62
2022/05/07 00:27:20;;;;;;;2.80;2.55;;;;;;;;;;6128391;23;20202;-62
2022/05/07 00:29:46;;;;;;;3.97;2.50;;;;;;;;;;6128450;23;20154;-61
2022/05/07 00:32:12;;;;;;;3.20;2.45;;;;;;;;;;6128508;23;20150;-61
2022/05/07 00:34:38;;;;;;;3.88;2.92;;;;;;;;;;6128398;23;20147;-61
2022/05/07 00:37:05;;;;;;;2.65;2.45;;;;;;;;;;6128564;23;20179;-62
2022/05/07 00:39:31;;;;;;;2.95;2.70;;;;;;;;;;6128425;23;20237;-62
2022/05/07 00:42:01;;;;;;;2.70;2.50;;;;;;;;;;6128621;23;20131;-62
2022/05/07 00:44:27;;;;;;;2.70;2.50;;;;;;;;;;6128251;23;20154;-62
2022/05/07 00:46:53;;;;;;;3.88;3.03;;;;;;;;;;6128563;23;20226;-61
2022/05/07 00:49:20;;;;;;;3.83;2.75;;;;;;;;;;6128918;23;20139;-61
2022/05/07 00:51:46;;;;;;;2.90;2.45;;;;;;;;;;6128662;23;20143;-61
2022/05/07 00:54:12;;;;;;;3.92;3.10;;;;;;;;;;6129102;23;20422;-61
2022/05/07 00:56:38;;;;;;;4.40;3.13;;;;;;;;;;6103005;23;20154;-63
2022/05/07 00:59:04;;;;;;;3.53;2.75;;;;;;;;;;6128808;23;20221;-61
2022/05/07 01:01:31;;;;;;;2.80;2.60;;;;;;;;;;6128343;23;20147;-62
2022/05/07 01:03:57;;;;;;;3.33;2.75;;;;;;;;;;6128906;23;20222;-62
2022/05/07 01:06:23;;;;;;;4.63;3.00;;;;;;;;;;6129005;23;20155;-61
2022/05/07 01:08:49;;;;;;;3.08;2.55;;;;;;;;;;6128516;23;20143;-62
2022/05/07 01:11:19;;;;;;;3.55;2.50;;;;;;;;;;6128850;23;20226;-63
2022/05/07 01:13:45;;;;;;;3.83;2.70;;;;;;;;;;6128184;23;20139;-62
2022/05/07 01:16:12;;;;;;;3.47;2.55;;;;;;;;;;6128235;23;20575;-62
2022/05/07 01:18:38;;;;;;;3.90;2.42;;;;;;;;;;6127860;23;20678;-61
2022/05/07 01:21:17;;;;;;;2.50;2.15;;;;;;;;;;6128194;23;20147;-61
2022/05/07 01:23:44;;;;;;;3.28;2.30;;;;;;;;;;6128885;23;20157;-60
2022/05/07 01:26:11;;;;;;;3.08;2.50;;;;;;;;;;6128557;23;20158;-59
2022/05/07 01:28:37;;;;;;;3.45;2.20;;;;;;;;;;6128073;23;20452;-62
2022/05/07 01:31:03;;;;;;;2.47;2.28;;;;;;;;;;6128297;23;20201;-61
2022/05/07 01:33:33;;;;;;;2.33;2.13;;;;;;;;;;6128378;23;20143;-60
2022/05/07 01:35:59;;;;;;;3.25;2.40;;;;;;;;;;6129208;23;20499;-61
2022/05/07 01:38:25;;;;;;;3.53;2.60;;;;;;;;;;6128396;23;20348;-62
2022/05/07 01:40:51;;;;;;;4.47;2.75;;;;;;;;;;6127866;23;20159;-63
2022/05/07 01:43:16;;;;;;;4.22;2.35;;;;;;;;;;6127652;23;20139;-63
2022/05/07 01:45:42;;;;;;;3.53;2.80;;;;;;;;;;6127835;23;20143;-62
2022/05/07 01:48:11;;;;;;;3.67;2.80;;;;;;;;;;6127620;23;20150;-63
2022/05/07 01:50:39;;;;;;;5.53;3.00;;;;;;;;;;6128067;23;20551;-60
2022/05/07 01:53:05;;;;;;;4.50;3.17;;;;;;;;;;6127856;23;20155;-60
2022/05/07 01:55:32;;;;;;;3.22;2.92;;;;;;;;;;6128229;23;20544;-60
2022/05/07 01:57:58;;;;;;;4.15;2.97;;;;;;;;;;6128270;23;20265;-60
2022/05/07 02:00:24;;;;;;;4.97;3.88;;;;;;;;;;6127806;23;20186;-61
2022/05/07 02:02:50;;;;;;;4.55;3.63;;;;;;;;;;6127894;23;20139;-60
2022/05/07 02:05:16;;;;;;;4.45;3.75;;;;;;;;;;6128048;23;20202;-60
2022/05/07 02:07:42;;;;;;;6.40;4.53;;;;;;;;;;6127495;23;20159;-60
2022/05/07 02:10:08;;;;;;;4.88;4.18;;;;;;;;;;6127899;23;20143;-60
2022/05/07 02:12:34;;;;;;;5.32;4.13;;;;;;;;;;6127559;23;20174;-60
2022/05/07 02:15:00;;;;;;;7.07;4.13;;;;;;;;;;6127690;23;20206;-60
2022/05/07 02:17:26;;;;;;;6.30;3.92;;;;;;;;;;6128016;23;20258;-59
2022/05/07 02:19:51;;;;;;;6.13;3.90;;;;;;;;;;6127969;23;20171;-60
2022/05/07 02:22:17;;;;;;;4.28;3.88;;;;;;;;;;6127777;23;20227;-59
2022/05/07 02:24:43;;;;;;;6.82;4.13;;;;;;;;;;6127279;23;20150;-60
2022/05/07 02:27:09;;;;;;;6.97;4.32;;;;;;;;;;6127467;23;20602;-60
2022/05/07 02:29:35;;;;;;;4.85;4.28;;;;;;;;;;6127601;23;20375;-60
2022/05/07 02:32:05;;;;;;;5.38;4.40;;;;;;;;;;6127568;23;20579;-60
2022/05/07 02:34:34;;;;;;;6.47;4.45;;;;;;;;;;6127625;23;20155;-60
2022/05/07 02:37:00;;;;;;;5.68;4.63;;;;;;;;;;6127186;23;20142;-60
2022/05/07 02:39:26;;;;;;;6.30;4.70;;;;;;;;;;6127270;23;20481;-60
2022/05/07 02:44:37;;;;;;;8.00;4.47;;;;;;;;;;6127157;23;20222;-60
2022/05/07 02:47:04;;;;;;;5.70;4.55;;;;;;;;;;6127080;23;20544;-60
2022/05/07 02:49:30;;;;;;;7.78;4.90;;;;;;;;;;6127423;23;20496;-58
2022/05/07 02:51:56;;;;;;;7.55;5.10;;;;;;;;;;6126941;23;20143;-60
2022/05/07 02:54:22;;;;;;;8.27;4.75;;;;;;;;;;6127350;23;20143;-60
2022/05/07 02:56:48;;;;;;;7.00;4.80;;;;;;;;;;6127228;23;20450;-60
2022/05/07 02:59:14;;;;;;;6.85;5.38;;;;;;;;;;6126960;23;20202;-60
2022/05/07 03:01:43;;;;;;;5.80;5.20;;;;;;;;;;6127439;23;20153;-60
2022/05/07 03:04:09;;;;;;;8.02;5.57;;;;;;;;;;6126885;23;20138;-60
2022/05/07 03:06:35;;;;;;;8.60;5.88;;;;;;;;;;6127311;23;20143;-60
2022/05/07 03:09:01;;;;;;;6.95;5.43;;;;;;;;;;6126885;23;20154;-60
2022/05/07 03:11:27;;;;;;;7.88;6.35;;;;;;;;;;6127191;23;20147;-59
2022/05/07 03:13:53;;;;;;;10.32;6.70;;;;;;;;;;6127173;23;20147;-59
2022/05/07 03:16:19;;;;;;;7.82;6.28;;;;;;;;;;6127310;23;20175;-59
2022/05/07 03:18:45;;;;;;;8.75;6.53;;;;;;;;;;6126915;23;20447;-59
2022/05/07 03:21:11;;;;;;;10.07;6.47;;;;;;;;;;6127228;23;20448;-60
2022/05/07 03:23:37;;;;;;;9.45;6.85;;;;;;;;;;6127405;23;20146;-58
2022/05/07 03:26:03;;;;;;;10.15;6.60;;;;;;;;;;6127126;23;20519;-59
2022/05/07 03:28:29;;;;;;;8.65;6.43;;;;;;;;;;6127354;23;20155;-60
2022/05/07 03:30:55;;;;;;;10.25;6.53;;;;;;;;;;6127075;23;20222;-59
2022/05/07 03:33:21;;;;;;;8.63;7.03;;;;;;;;;;6126661;23;20143;-60
2022/05/07 03:35:47;;;;;;;9.65;6.95;;;;;;;;;;6126735;23;20205;-60
2022/05/07 03:38:13;;;;;;;8.68;6.55;;;;;;;;;;6126983;23;20473;-60
2022/05/07 03:40:39;;;;;;;8.68;6.93;;;;;;;;;;6126397;23;20165;-59
2022/05/07 03:43:05;;;;;;;8.25;6.63;;;;;;;;;;6127229;23;20143;-60
2022/05/07 03:45:32;;;;;;;8.40;6.75;;;;;;;;;;6127040;23;20189;-60
2022/05/07 03:47:59;;;;;;;9.82;7.00;;;;;;;;;;6126796;23;20547;-60
2022/05/07 03:50:24;;;;;;;7.95;6.47;;;;;;;;;;6127030;23;20151;-60
2022/05/07 03:55:41;;;;;;;9.30;6.60;;;;;;;;;;6126686;23;20158;-60
2022/05/07 03:58:10;;;;;;;9.45;6.95;;;;;;;;;;6127007;23;20437;-60
2022/05/07 04:00:36;;;;;;;10.95;7.13;;;;;;;;;;6126895;23;20222;-60
2022/05/07 04:03:02;;;;;;;8.65;7.10;;;;;;;;;;6126661;23;20230;-60
2022/05/07 04:05:28;;;;;;;10.13;7.70;;;;;;;;;;6126776;23;20611;-60
2022/05/07 04:07:54;;;;;;;9.75;7.05;;;;;;;;;;6127000;23;20222;-59
2022/05/07 04:10:20;;;;;;;11.80;7.78;;;;;;;;;;6126910;23;20210;-59
2022/05/07 04:12:47;;;;;;;11.82;7.68;;;;;;;;;;6126702;23;20447;-59
2022/05/07 04:15:13;;;;;;;10.52;7.95;;;;;;;;;;6126700;23;20143;-59
2022/05/07 04:17:39;;;;;;;10.27;8.13;;;;;;;;;;6126982;23;20294;-59
2022/05/07 04:20:05;;;;;;;10.00;8.25;;;;;;;;;;6126885;23;20139;-60
2022/05/07 04:22:35;;;;;;;11.32;8.18;;;;;;;;;;6126963;23;20159;-59
2022/05/07 04:25:01;;;;;;;9.65;7.93;;;;;;;;;;6126574;23;20595;-59
2022/05/07 04:27:27;;;;;;;13.07;7.80;;;;;;;;;;6127096;23;20147;-60
2022/05/07 04:29:53;;;;;;;10.10;7.50;;;;;;;;;;6126679;23;20154;-60
2022/05/07 04:32:19;;;;;;;10.63;8.20;;;;;;;;;;6130570;23;20144;-59
2022/05/07 04:34:45;;;;;;;11.63;8.02;;;;;;;;;;6128269;23;20213;-59
2022/05/07 04:37:11;;;;;;;10.50;8.27;;;;;;;;;;6126720;23;20575;-60
2022/05/07 04:39:37;;;;;;;10.43;8.05;;;;;;;;;;6126624;23;20215;-60
2022/05/07 04:42:03;;;;;;;10.38;8.25;;;;;;;;;;6126980;23;20186;-60
2022/05/07 04:44:29;;;;;;;11.95;8.50;;;;;;;;;;6127553;23;20562;-64
2022/05/07 04:46:55;;;;;;;13.80;8.77;;;;;;;;;;6126722;23;20143;-59
2022/05/07 04:49:22;;;;;;;13.35;9.52;;;;;;;;;;6126372;23;20150;-58
2022/05/07 04:51:50;;;;;;;15.65;9.65;;;;;;;;;;6127101;23;20449;-59
2022/05/07 04:54:16;;;;;;;13.07;9.07;;;;;;;;;;6128165;23;20231;-59
2022/05/07 04:56:43;;;;;;;16.48;10.20;;;;;;;;;;6128225;23;20162;-60
2022/05/07 04:59:09;;;;;;;14.52;10.27;;;;;;;;;;6128937;23;20586;-59
2022/05/07 05:01:34;;;;;;;16.10;11.43;;;;;;;;;;6128525;23;20171;-60
2022/05/07 05:04:00;;;;;;;16.40;12.05;;;;;;;;;;6128423;23;20194;-60
2022/05/07 05:06:26;;;;;;;16.80;12.10;;;;;;;;;;6128764;23;20147;-59
2022/05/07 05:08:52;;;;;;;15.13;11.70;;;;;;;;;;6128347;23;20168;-59
2022/05/07 05:11:18;;;;;;;19.45;12.85;;;;;;;;;;6128081;23;20142;-60
2022/05/07 05:13:44;;;;;;;18.80;13.27;;;;;;;;;;6128033;23;20166;-60
2022/05/07 05:16:10;;;;;;;20.35;13.13;;;;;;;;;;6127956;23;20155;-59
2022/05/07 05:18:36;;;;;;;21.73;13.20;;;;;;;;;;6128171;23;20170;-60
2022/05/07 05:21:02;;;;;;;21.17;14.45;;;;;;;;;;6127941;23;20154;-60
2022/05/07 05:23:28;;;;;;;20.65;13.93;;;;;;;;;;6127979;23;20175;-60
2022/05/07 05:25:54;;;;;;;19.33;13.05;;;;;;;;;;6127859;23;20408;-60
2022/05/07 05:28:20;;;;;;;20.50;14.05;;;;;;;;;;6127810;23;20149;-60
2022/05/07 05:30:51;;;;;;;17.95;13.50;;;;;;;;;;6128093;23;20158;-60
2022/05/07 05:33:17;;;;;;;19.73;14.52;;;;;;;;;;6128263;23;20203;-60
2022/05/07 05:35:43;;;;;;;18.02;13.88;;;;;;;;;;6127691;23;20185;-60
2022/05/07 05:38:09;;;;;;;18.60;13.93;;;;;;;;;;6127694;23;20452;-60
2022/05/07 05:40:34;;;;;;;21.35;13.60;;;;;;;;;;6127678;23;20230;-60
2022/05/07 05:43:00;;;;;;;19.85;14.18;;;;;;;;;;6128600;23;20151;-59
2022/05/07 05:45:29;;;;;;;19.55;14.50;;;;;;;;;;6128174;23;20222;-59
2022/05/07 05:47:55;;;;;;;21.35;14.35;;;;;;;;;;6127728;23;20158;-59
2022/05/07 05:50:21;;;;;;;16.08;12.70;;;;;;;;;;6127802;23;20147;-60
2022/05/07 05:52:47;;;;;;;20.00;13.15;;;;;;;;;;6127900;23;20169;-59
2022/05/07 05:55:13;;;;;;;21.85;13.57;;;;;;;;;;6127761;23;20143;-60
2022/05/07 05:57:39;;;;;;;18.77;12.85;;;;;;;;;;6127622;23;20177;-60
2022/05/07 06:00:08;;;;;;;19.17;13.43;;;;;;;;;;6127559;23;20494;-58
2022/05/07 06:02:34;;;;;;;20.55;15.07;;;;;;;;;;6102838;23;20575;-60
2022/05/07 06:05:00;;;;;;;21.42;14.98;;;;;;;;;;6127773;23;20162;-60
2022/05/07 06:07:26;;;;;;;21.60;14.55;;;;;;;;;;6127525;23;20166;-60
2022/05/07 06:09:52;;;;;;;22.15;15.80;;;;;;;;;;6127576;23;20158;-60
2022/05/07 06:12:18;;;;;;;24.30;16.25;;;;;;;;;;6127440;23;20147;-61
2022/05/07 06:14:44;;;;;;;23.95;15.05;;;;;;;;;;6127171;23;20586;-61
2022/05/07 06:17:10;;;;;;;22.92;15.15;;;;;;;;;;6127268;23;20209;-63
2022/05/07 06:19:36;;;;;;;20.85;14.82;;;;;;;;;;6127573;23;20143;-60
2022/05/07 06:22:01;;;;;;;21.08;13.82;;;;;;;;;;6127339;23;20150;-60
2022/05/07 06:29:56;;;;;;;16.95;11.10;;;;;;;;;;6127614;23;20221;-60
2022/05/07 06:32:22;;;;;;;15.30;9.65;;;;;;;;;;6127163;23;20486;-60
2022/05/07 06:34:49;;;;;;;13.43;8.30;;;;;;;;;;6127017;23;20454;-61
2022/05/07 06:37:14;;;;;;;11.05;7.32;;;;;;;;;;6126978;23;20510;-60
2022/05/07 06:39:41;;;;;;;13.05;8.38;;;;;;;;;;6127240;23;20155;-60
2022/05/07 06:42:07;;;;;;;13.15;6.90;;;;;;;;;;6127263;23;20227;-60
2022/05/07 06:44:33;;;;;;;11.65;7.47;;;;;;;;;;6127570;23;20153;-61
2022/05/07 06:46:59;;;;;;;10.70;7.18;;;;;;;;;;6127484;23;20157;-60
2022/05/07 06:49:25;;;;;;;11.45;7.00;;;;;;;;;;6127163;23;20175;-59
2022/05/07 06:51:51;;;;;;;8.25;6.18;;;;;;;;;;6127468;23;20214;-60
2022/05/07 06:54:17;;;;;;;10.25;6.32;;;;;;;;;;6127367;23;20147;-60
2022/05/07 06:56:43;;;;;;;8.85;4.75;;;;;;;;;;6126870;23;20143;-59
2022/05/07 06:59:12;;;;;;;6.93;4.60;;;;;;;;;;6127403;23;20185;-60
2022/05/07 07:01:38;;;;;;;7.35;4.32;;;;;;;;;;6127510;23;20150;-60
2022/05/07 07:04:04;;;;;;;5.72;4.45;;;;;;;;;;6127921;23;20597;-59
2022/05/07 07:06:30;;;;;;;7.03;4.43;;;;;;;;;;6127103;23;20149;-60
2022/05/07 07:08:56;;;;;;;5.88;4.22;;;;;;;;;;6127334;23;20229;-61
2022/05/07 07:11:23;;;;;;;6.15;4.30;;;;;;;;;;6126874;23;20182;-60
2022/05/07 07:13:49;;;;;;;7.18;4.75;;;;;;;;;;6126808;23;20202;-60
2022/05/07 07:16:15;;;;;;;9.43;5.35;;;;;;;;;;6126654;23;20154;-60
2022/05/07 07:18:41;;;;;;;7.93;5.50;;;;;;;;;;6127301;23;20198;-59
2022/05/07 07:21:07;;;;;;;10.90;6.20;;;;;;;;;;6127496;23;20558;-60
2022/05/07 07:23:33;;;;;;;9.90;6.28;;;;;;;;;;6127296;23;20555;-60
2022/05/07 07:25:59;;;;;;;7.80;5.88;;;;;;;;;;6127321;23;20138;-60
2022/05/07 07:28:25;;;;;;;10.25;6.43;;;;;;;;;;6127155;23;20446;-60
2022/05/07 07:30:51;;;;;;;8.07;6.10;;;;;;;;;;6127166;23;20150;-60
2022/05/07 07:33:17;;;;;;;9.18;5.60;;;;;;;;;;6127138;23;20634;-60
2022/05/07 07:35:46;;;;;;;9.20;5.90;;;;;;;;;;6127716;23;20594;-61
2022/05/07 07:38:12;;;;;;;9.70;6.22;;;;;;;;;;6128025;23;20236;-58
2022/05/07 07:40:39;;;;;;;9.23;5.65;;;;;;;;;;6127420;23;20177;-60
2022/05/07 07:43:05;;;;;;;10.23;6.18;;;;;;;;;;6128326;23;20161;-60
2022/05/07 07:48:16;;;;;;;11.05;6.10;;;;;;;;;;6127935;23;20142;-60
2022/05/07 07:50:44;;;;;;;8.75;5.78;;;;;;;;;;6128335;23;20439;-60
2022/05/07 07:53:11;;;;;;;7.88;6.30;;;;;;;;;;6127802;23;20448;-60
2022/05/07 07:55:37;;;;;;;8.88;5.55;;;;;;;;;;6127785;23;20216;-60
2022/05/07 07:58:05;;;;;;;8.73;5.63;;;;;;;;;;6126872;23;20531;-60
2022/05/07 08:00:31;;;;;;;10.07;5.50;;;;;;;;;;6127441;23;20146;-59
2022/05/07 08:02:58;;;;;;;8.30;5.47;;;;;;;;;;6126769;23;20611;-60
2022/05/07 08:05:29;;;;;;;11.68;5.55;;;;;;;;;;6127190;23;20577;-60
2022/05/07 08:13:24;;;;;;;9.63;5.57;;;;;;;;;;6126696;23;20258;-59
2022/05/07 08:15:51;;;;;;;11.27;6.15;;;;;;;;;;6126789;23;20147;-58
2022/05/07 08:18:17;;;;;;;8.65;5.35;;;;;;;;;;6126751;23;20171;-61
2022/05/07 08:20:43;;;;;;;5.95;4.43;;;;;;;;;;6126605;23;20209;-61
2022/05/07 08:23:10;;;;;;;6.63;4.78;;;;;;;;;;6126381;23;20240;-61
2022/05/07 08:25:37;;;;;;;7.75;5.05;;;;;;;;;;6126946;23;20147;-61
2022/05/07 08:28:03;;;;;;;8.70;5.10;;;;;;;;;;6128187;23;20150;-61
2022/05/07 08:30:29;;;;;;;7.32;4.68;;;;;;;;;;6128351;23;20162;-61
2022/05/07 08:32:55;;;;;;;7.70;5.03;;;;;;;;;;6128541;23;20143;-61
2022/05/07 08:35:21;;;;;;;5.50;4.45;;;;;;;;;;6128526;23;20169;-59
2022/05/07 08:37:47;;;;;;;6.68;4.32;;;;;;;;;;6128277;23;20178;-60
2022/05/07 08:40:17;;;;;;;6.20;3.97;;;;;;;;;;6128349;23;20165;-61
2022/05/07 08:42:43;;;;;;;4.63;3.80;;;;;;;;;;6128351;23;20149;-60
2022/05/07 08:45:11;;;;;;;7.10;4.00;;;;;;;;;;6128302;23;20737;-61
2022/05/07 08:47:37;;;;;;;5.68;4.72;;;;;;;;;;6128539;23;20157;-60
2022/05/07 08:50:03;;;;;;;15.30;5.25;;;;;;;;;;6128294;23;20142;-59
2022/05/07 08:52:29;;;;;;;7.47;5.45;;;;;;;;;;6128611;23;20154;-61
2022/05/07 08:54:57;;;;;;;7.90;5.35;;;;;;;;;;6128334;23;20551;-58
2022/05/07 08:57:24;;;;;;;5.72;3.97;;;;;;;;;;6128291;23;20254;-60
2022/05/07 08:59:51;;;;;;;6.47;4.20;;;;;;;;;;6128155;23;20498;-60
2022/05/07 09:02:17;;;;;;;5.32;3.38;;;;;;;;;;6128471;23;20162;-60
2022/05/07 09:04:54;;;;;;;5.18;3.92;;;;;;;;;;6128585;23;20146;-60
2022/05/07 09:07:20;;;;;;;6.25;4.10;;;;;;;;;;6128457;23;20475;-60
2022/05/07 09:09:50;;;;;;;5.63;4.72;;;;;;;;;;6128261;23;20183;-60
2022/05/07 09:12:29;;;;;;;6.70;4.10;;;;;;;;;;6128645;23;20205;-59
2022/05/07 09:15:00;;;;;;;6.65;4.57;;;;;;;;;;6128495;23;20212;-59
2022/05/07 09:17:26;;;;;;;9.60;4.80;;;;;;;;;;6128437;23;20447;-58
2022/05/07 09:19:52;;;;;;;7.88;4.82;;;;;;;;;;6128075;23;20143;-59
2022/05/07 09:22:18;;;;;;;7.38;5.20;;;;;;;;;;6128465;23;20146;-60
2022/05/07 09:24:53;;;;;;;7.38;5.22;;;;;;;;;;6128297;23;20300;-59
2022/05/07 09:27:19;;;;;;;8.43;5.47;;;;;;;;;;6128491;23;20142;-59
2022/05/07 09:29:45;;;;;;;8.60;5.35;;;;;;;;;;6128080;23;20445;-58
2022/05/07 09:32:13;;;;;;;9.13;5.93;;;;;;;;;;6127949;23;20147;-60
2022/05/07 09:37:35;;;;;;;10.55;6.45;;;;;;;;;;6128030;23;20263;-59
2022/05/07 09:40:05;;;;;;;14.32;6.60;;;;;;;;;;6127575;23;20163;-59
2022/05/07 09:42:33;;;;;;;10.45;8.02;;;;;;;;;;6128055;23;20147;-60
2022/05/07 09:45:00;;;;;;;11.75;7.57;;;;;;;;;;6127797;23;20143;-59
2022/05/07 09:47:30;;;;;;;9.90;7.15;;;;;;;;;;6128076;23;20150;-59
2022/05/07 09:57:30;;;;;;;10.30;7.32;;;;;;;;;;6127759;23;20209;-61
2022/05/07 09:58:18;;;;;;;9.00;7.35;;;;;;;;;;6127513;23;20252;-60
2022/05/07 10:00:53;;;;;;;12.30;7.97;;;;;;;;;;6127943;23;20610;-60
2022/05/07 10:03:42;;;;;;;9.68;8.07;;;;;;;;;;6127589;23;20157;-60
2022/05/07 10:06:16;;;;;;;15.32;8.13;;;;;;;;;;6116052;23;20237;-60
2022/05/07 10:08:50;;;;;;;8.70;6.82;;;;;;;;;;6127428;23;20139;-61
2022/05/07 10:11:16;;;;;;;13.43;9.07;;;;;;;;;;6127817;23;20135;-60
2022/05/07 10:13:55;;;;;;;10.13;7.93;;;;;;;;;;6127335;23;20209;-61
2022/05/07 10:16:23;;;;;;;12.80;8.15;;;;;;;;;;6127511;23;20672;-60
2022/05/07 10:18:49;;;;;;;12.00;8.38;;;;;;;;;;6127637;23;20241;-61
2022/05/07 10:21:16;;;;;;;10.38;7.50;;;;;;;;;;6127601;23;20143;-60
2022/05/07 10:23:52;;;;;;;12.10;8.25;;;;;;;;;;6127503;23;20154;-60
2022/05/07 10:26:19;;;;;;;11.52;8.52;;;;;;;;;;6127782;23;20123;-60
2022/05/07 10:28:45;;;;;;;12.45;8.65;;;;;;;;;;6127093;23;20150;-60
2022/05/07 10:31:18;;;;;;;15.05;8.93;;;;;;;;;;6127396;23;20146;-60
2022/05/07 10:33:44;;;;;;;11.38;8.00;;;;;;;;;;6127575;23;20150;-60
2022/05/07 10:36:11;;;;;;;10.38;8.48;;;;;;;;;;6127324;23;20500;-59
2022/05/07 10:38:38;;;;;;;11.57;8.35;;;;;;;;;;6127178;23;20170;-60
2022/05/07 10:41:05;;;;;;;13.07;8.52;;;;;;;;;;6127242;23;20463;-59
2022/05/07 10:43:38;;;;;;;12.35;9.07;;;;;;;;;;6127448;23;20142;-60
2022/05/07 10:46:04;;;;;;;11.15;8.35;;;;;;;;;;6127566;23;20135;-61
2022/05/07 10:48:42;;;;;;;13.18;8.27;;;;;;;;;;6127142;23;20151;-60
2022/05/07 10:51:16;;;;;;;12.15;8.45;;;;;;;;;;6127307;23;20174;-60
2022/05/07 10:53:42;;;;;;;10.70;8.02;;;;;;;;;;6127403;23;20265;-60
2022/05/07 10:56:17;;;;;;;10.70;7.43;;;;;;;;;;6127331;23;20151;-60
2022/05/07 10:58:48;;;;;;;11.88;8.32;;;;;;;;;;6126943;23;20188;-59
2022/05/07 11:01:14;;;;;;;14.00;10.10;;;;;;;;;;6127071;23;20434;-59
2022/05/07 11:03:40;;;;;;;14.90;9.18;;;;;;;;;;6127098;23;20142;-60
2022/05/07 11:06:06;;;;;;;11.70;8.23;;;;;;;;;;6127747;23;20184;-60
2022/05/07 11:08:32;;;;;;;12.75;8.73;;;;;;;;;;6127239;23;20143;-60
2022/05/07 11:11:08;;;;;;;12.70;8.55;;;;;;;;;;6127096;23;20185;-60
2022/05/07 11:13:38;;;;;;;10.80;7.80;;;;;;;;;;6127172;23;20423;-59
2022/05/07 11:16:06;;;;;;;11.70;8.60;;;;;;;;;;6127947;23;20149;-59
2022/05/07 11:18:33;;;;;;;9.80;7.22;;;;;;;;;;6127628;23;20170;-60
2022/05/07 11:21:05;;;;;;;10.93;7.45;;;;;;;;;;6127719;23;20181;-60
2022/05/07 11:23:36;;;;;;;11.07;7.50;;;;;;;;;;6127203;23;20142;-61
2022/05/07 11:26:17;;;;;;;10.30;8.02;;;;;;;;;;6127741;23;20189;-61
2022/05/07 11:28:44;;;;;;;10.13;6.90;;;;;;;;;;6127507;23;20177;-59
2022/05/07 11:31:11;;;;;;;9.40;5.95;;;;;;;;;;6127250;23;20596;-60
2022/05/07 11:33:37;;;;;;;7.88;5.32;;;;;;;;;;6127143;23;20150;-62
2022/05/07 11:36:07;;;;;;;6.95;5.78;;;;;;;;;;6127225;23;20161;-62
2022/05/07 11:38:34;;;;;;;6.28;4.93;;;;;;;;;;6126830;23;20174;-63
2022/05/07 11:41:13;;;;;;;5.60;4.30;;;;;;;;;;6126539;23;20166;-62
2022/05/07 11:46:24;;;;;;;6.05;5.20;;;;;;;;;;6126858;23;20448;-63
2022/05/07 11:48:50;;;;;;;6.63;5.60;;;;;;;;;;6126705;23;20205;-62
2022/05/07 11:51:25;;;;;;;9.32;6.50;;;;;;;;;;6126863;23;20547;-62
2022/05/07 11:53:51;;;;;;;17.35;6.70;;;;;;;;;;6127100;23;20146;-63
2022/05/07 11:56:18;;;;;;;9.38;5.88;;;;;;;;;;6127062;23;20185;-62
2022/05/07 11:58:45;;;;;;;9.07;6.22;;;;;;;;;;6126614;23;20369;-63
2022/05/07 12:01:18;;;;;;;10.65;6.47;;;;;;;;;;6126570;23;20157;-62
2022/05/07 12:03:44;;;;;;;9.50;6.85;;;;;;;;;;6128648;23;20339;-63
2022/05/07 12:06:12;;;;;;;9.20;6.80;;;;;;;;;;6128973;23;20205;-62
2022/05/07 12:08:38;;;;;;;9.90;7.45;;;;;;;;;;6129038;23;20154;-62
2022/05/07 12:11:05;;;;;;;9.15;7.38;;;;;;;;;;6128589;23;20193;-62
2022/05/07 12:13:31;;;;;;;11.65;8.93;;;;;;;;;;6128913;23;20178;-63
2022/05/07 12:18:47;;;;;;;12.95;9.32;;;;;;;;;;6128709;23;20181;-62
2022/05/07 12:21:13;;;;;;;13.27;10.73;;;;;;;;;;6128884;23;20154;-62
2022/05/07 12:31:46;;;;;;;15.52;10.02;;;;;;;;;;6128491;23;20145;-62
2022/05/07 12:34:12;;;;;;;15.05;10.40;;;;;;;;;;6128569;23;20166;-62
2022/05/07 12:36:38;;;;;;;12.65;10.02;;;;;;;;;;6128888;23;20155;-61
2022/05/07 12:39:04;;;;;;;15.02;10.40;;;;;;;;;;6128142;23;20186;-61
2022/05/07 12:41:30;;;;;;;12.10;9.20;;;;;;;;;;6128766;23;20585;-62
2022/05/07 12:43:59;;;;;;;12.77;8.30;;;;;;;;;;6128630;23;20146;-62
2022/05/07 12:46:25;;;;;;;11.43;8.35;;;;;;;;;;6128559;23;20146;-62
2022/05/07 12:48:51;;;;;;;10.57;7.88;;;;;;;;;;6128421;23;20236;-61
2022/05/07 12:51:17;;;;;;;12.75;7.53;;;;;;;;;;6128514;23;20160;-62
2022/05/07 12:53:44;;;;;;;9.60;8.05;;;;;;;;;;6128202;23;20166;-62
2022/05/07 12:56:10;;;;;;;10.52;7.82;;;;;;;;;;6127982;23;20571;-61
2022/05/07 12:58:36;;;;;;;10.23;7.53;;;;;;;;;;6128127;23;20170;-61
2022/05/07 13:01:02;;;;;;;10.80;7.82;;;;;;;;;;6128778;23;20151;-61
2022/05/07 13:03:28;;;;;;;11.60;9.10;;;;;;;;;;6128143;23;20231;-62
2022/05/07 13:05:54;;;;;;;11.73;9.25;;;;;;;;;;6127999;23;20149;-60
2022/05/07 13:08:20;;;;;;;13.00;9.48;;;;;;;;;;6128205;23;20143;-62
2022/05/07 13:10:46;;;;;;;12.90;9.65;;;;;;;;;;6128194;23;20150;-62
2022/05/07 13:13:12;;;;;;;13.18;9.63;;;;;;;;;;6127557;23;20237;-62
2022/05/07 13:15:39;;;;;;;13.00;9.27;;;;;;;;;;6128338;23;20151;-63
2022/05/07 13:18:05;;;;;;;13.73;10.32;;;;;;;;;;6127874;23;20213;-62
2022/05/07 13:20:31;;;;;;;13.40;8.70;;;;;;;;;;6127946;23;20170;-61
2022/05/07 13:22:57;;;;;;;12.55;8.82;;;;;;;;;;6128044;23;20143;-63
2022/05/07 13:25:23;;;;;;;11.48;9.07;;;;;;;;;;6128654;23;20142;-61
2022/05/07 13:27:49;;;;;;;9.90;7.50;;;;;;;;;;6128566;23;20157;-62
2022/05/07 13:30:17;;;;;;;8.82;6.30;;;;;;;;;;6139284;23;20147;-63
2022/05/07 13:32:43;;;;;;;7.13;5.57;;;;;;;;;;6132711;23;20547;-62
2022/05/07 13:35:09;;;;;;;7.20;5.30;;;;;;;;;;6128027;23;20536;-62
2022/05/07 13:37:36;;;;;;;5.47;3.30;;;;;;;;;;6127658;23;20492;-63
2022/05/07 13:40:03;;;;;;;3.53;3.05;;;;;;;;;;6128155;23;20162;-63
2022/05/07 13:42:29;;;;;;;3.05;2.00;;;;;;;;;;6128145;23;20157;-63
2022/05/07 13:44:54;;;;;;;1.10;1.00;;;;;;;;;;6127871;23;20221;-63
2022/05/07 13:47:21;;;;;;;1.20;0.88;;;;;;;;;;6128058;23;20157;-63
2022/05/07 13:49:47;;;;;;;1.73;1.20;;;;;;;;;;6128160;23;20189;-62
2022/05/07 13:52:13;;;;;;;3.58;1.40;;;;;;;;;;6127733;23;20138;-62
2022/05/07 13:54:39;;;;;;;2.78;1.63;;;;;;;;;;6128170;23;20229;-62
2022/05/07 13:57:05;;;;;;;3.55;1.40;;;;;;;;;;6128007;23;20147;-62
2022/05/07 13:59:32;;;;;;;2.08;1.15;;;;;;;;;;6128052;23;20182;-62
2022/05/07 14:01:58;;;;;;;2.47;1.50;;;;;;;;;;6128035;23;20139;-63
2022/05/07 14:04:26;;;;;;;2.03;1.75;;;;;;;;;;6127766;23;20551;-62
2022/05/07 14:06:52;;;;;;;2.40;2.20;;;;;;;;;;6128297;23;20180;-62
2022/05/07 14:09:18;;;;;;;3.10;2.90;;;;;;;;;;6127900;23;20217;-63
2022/05/07 14:11:44;;;;;;;3.15;2.85;;;;;;;;;;6127503;23;20150;-63
2022/05/07 14:14:10;;;;;;;3.40;2.42;;;;;;;;;;6128189;23;20147;-61
2022/05/07 14:16:36;;;;;;;3.28;2.90;;;;;;;;;;6127592;23;20554;-63
2022/05/07 14:19:02;;;;;;;3.03;2.53;;;;;;;;;;6127531;23;20166;-62
2022/05/07 14:21:28;;;;;;;3.35;2.90;;;;;;;;;;6127789;23;20200;-62
2022/05/07 14:23:54;;;;;;;3.45;3.10;;;;;;;;;;6127828;23;20174;-61
2022/05/07 14:26:20;;;;;;;3.90;3.50;;;;;;;;;;6127196;23;20143;-62
2022/05/07 14:28:46;;;;;;;4.70;3.78;;;;;;;;;;6127413;23;20153;-61
2022/05/07 14:31:12;;;;;;;4.13;3.65;;;;;;;;;;6127575;23;20147;-61
2022/05/07 14:33:38;;;;;;;5.82;2.95;;;;;;;;;;6127828;23;20205;-61
2022/05/07 14:36:04;;;;;;;3.20;2.83;;;;;;;;;;6127594;23;20151;-61
2022/05/07 14:38:30;;;;;;;3.80;2.53;;;;;;;;;;6127409;23;20174;-61
2022/05/07 14:40:56;;;;;;;3.28;2.53;;;;;;;;;;6127050;23;20162;-62
2022/05/07 14:43:23;;;;;;;5.43;2.90;;;;;;;;;;6127153;23;20217;-63
2022/05/07 14:45:49;;;;;;;3.67;2.72;;;;;;;;;;6127348;23;20142;-63
2022/05/07 14:48:15;;;;;;;4.28;2.70;;;;;;;;;;6127127;23;20161;-63
2022/05/07 14:50:42;;;;;;;3.78;2.40;;;;;;;;;;6127029;23;20153;-63
2022/05/07 14:53:08;;;;;;;3.20;2.10;;;;;;;;;;6126893;23;20177;-62
2022/05/07 14:57:09;;;;;;;3.28;2.95;;;;;;;;;;6288726;22;20543;-60
2022/05/07 15:03:48;;;;;;;4.22;3.83;;;;;;;;;;6226825;22;20867;-61
2022/05/07 15:19:53;;;;;;;4.97;3.92;;;;;;;;;;6254632;22;20209;31
2022/05/07 15:24:04;;;;;;;5.93;3.97;;;;;;;;;;6320886;22;20568;31
2022/05/07 15:39:54;;;;;;;4.55;3.20;;;;;;;;;;6262932;22;20204;31
2022/05/07 15:53:33;;;;;;;4.90;3.22;;;;;;;;;;6254997;22;20208;31
2022/05/07 16:00:22;;;;;;;4.30;3.60;;;;;;;;;;6262058;22;20213;31
2022/05/07 16:05:03;;;;;;;5.40;3.42;;;;;;;;;;6347490;22;20550;-59
2022/05/07 16:07:29;;;;;;;4.18;3.55;;;;;;;;;;6310738;22;20199;31
2022/05/07 16:14:49;;;;;;;4.85;3.65;;;;;;;;;;6281658;22;20211;31